sensor_id;sensor_type;location;lat;lon;timestamp;temperature;humidity
30379;DHT22;17168;49.164;9.060;2023-07-13T00:01:55;20.70;69.70
30379;DHT22;17168;49.164;9.060;2023-07-13T00:04:30;20.70;69.90
30379;DHT22;17168;49.164;9.060;2023-07-13T00:07:05;20.60;69.90
30379;DHT22;17168;49.164;9.060;2023-07-13T00:09:37;20.60;70.00
30379;DHT22;17168;49.164;9.060;2023-07-13T00:12:23;20.60;70.10
30379;DHT22;17168;49.164;9.060;2023-07-13T00:14:57;20.50;70.20
30379;DHT22;17168;49.164;9.060;2023-07-13T00:17:29;20.50;70.30
30379;DHT22;17168;49.164;9.060;2023-07-13T00:20:08;20.40;70.40
30379;DHT22;17168;49.164;9.060;2023-07-13T00:22:40;20.40;70.40
30379;DHT22;17168;49.164;9.060;2023-07-13T00:25:13;20.30;70.70
30379;DHT22;17168;49.164;9.060;2023-07-13T00:27:49;20.30;70.70
30379;DHT22;17168;49.164;9.060;2023-07-13T00:30:21;20.30;70.80
30379;DHT22;17168;49.164;9.060;2023-07-13T00:32:54;20.20;70.90
30379;DHT22;17168;49.164;9.060;2023-07-13T00:35:45;20.20;71.10
30379;DHT22;17168;49.164;9.060;2023-07-13T00:38:18;20.20;71.30
30379;DHT22;17168;49.164;9.060;2023-07-13T00:40:50;20.10;71.40
30379;DHT22;17168;49.164;9.060;2023-07-13T00:43:24;20.10;71.50
30379;DHT22;17168;49.164;9.060;2023-07-13T00:46:20;20.00;71.60
30379;DHT22;17168;49.164;9.060;2023-07-13T00:48:53;20.00;71.80
30379;DHT22;17168;49.164;9.060;2023-07-13T00:51:36;19.90;71.70
30379;DHT22;17168;49.164;9.060;2023-07-13T00:54:15;19.90;71.90
30379;DHT22;17168;49.164;9.060;2023-07-13T00:56:51;19.90;72.10
30379;DHT22;17168;49.164;9.060;2023-07-13T00:59:24;19.80;71.90
30379;DHT22;17168;49.164;9.060;2023-07-13T01:01:56;19.80;72.00
30379;DHT22;17168;49.164;9.060;2023-07-13T01:04:29;19.80;72.00
30379;DHT22;17168;49.164;9.060;2023-07-13T01:07:05;19.70;72.00
30379;DHT22;17168;49.164;9.060;2023-07-13T01:09:38;19.70;71.90
30379;DHT22;17168;49.164;9.060;2023-07-13T01:12:11;19.70;71.70
30379;DHT22;17168;49.164;9.060;2023-07-13T01:14:43;19.70;71.60
30379;DHT22;17168;49.164;9.060;2023-07-13T01:17:15;19.70;71.70
30379;DHT22;17168;49.164;9.060;2023-07-13T01:19:48;19.70;71.70
30379;DHT22;17168;49.164;9.060;2023-07-13T01:22:23;19.70;71.80
30379;DHT22;17168;49.164;9.060;2023-07-13T01:24:57;19.70;72.10
30379;DHT22;17168;49.164;9.060;2023-07-13T01:27:30;19.60;72.40
30379;DHT22;17168;49.164;9.060;2023-07-13T01:30:02;19.60;72.60
30379;DHT22;17168;49.164;9.060;2023-07-13T01:32:36;19.60;72.90
30379;DHT22;17168;49.164;9.060;2023-07-13T01:35:08;19.50;73.10
30379;DHT22;17168;49.164;9.060;2023-07-13T01:37:43;19.50;73.30
30379;DHT22;17168;49.164;9.060;2023-07-13T01:40:17;19.50;73.40
30379;DHT22;17168;49.164;9.060;2023-07-13T01:42:49;19.40;73.50
30379;DHT22;17168;49.164;9.060;2023-07-13T01:45:21;19.40;73.70
30379;DHT22;17168;49.164;9.060;2023-07-13T01:47:53;19.40;73.90
30379;DHT22;17168;49.164;9.060;2023-07-13T01:50:26;19.40;74.30
30379;DHT22;17168;49.164;9.060;2023-07-13T01:53:01;19.30;74.50
30379;DHT22;17168;49.164;9.060;2023-07-13T01:55:33;19.30;75.00
30379;DHT22;17168;49.164;9.060;2023-07-13T01:58:06;19.20;75.10
30379;DHT22;17168;49.164;9.060;2023-07-13T02:00:38;19.20;75.30
30379;DHT22;17168;49.164;9.060;2023-07-13T02:03:10;19.10;75.50
30379;DHT22;17168;49.164;9.060;2023-07-13T02:05:43;19.10;75.60
30379;DHT22;17168;49.164;9.060;2023-07-13T02:08:17;19.10;75.70
30379;DHT22;17168;49.164;9.060;2023-07-13T02:10:50;19.10;75.70
30379;DHT22;17168;49.164;9.060;2023-07-13T02:13:22;19.00;75.70
30379;DHT22;17168;49.164;9.060;2023-07-13T02:15:54;19.00;75.70
30379;DHT22;17168;49.164;9.060;2023-07-13T02:18:29;18.90;76.20
30379;DHT22;17168;49.164;9.060;2023-07-13T02:21:01;18.90;75.70
30379;DHT22;17168;49.164;9.060;2023-07-13T02:23:37;18.80;75.80
30379;DHT22;17168;49.164;9.060;2023-07-13T02:26:09;18.80;75.90
30379;DHT22;17168;49.164;9.060;2023-07-13T02:28:42;18.80;75.90
30379;DHT22;17168;49.164;9.060;2023-07-13T02:31:16;18.70;75.80
30379;DHT22;17168;49.164;9.060;2023-07-13T02:33:48;18.70;75.90
30379;DHT22;17168;49.164;9.060;2023-07-13T02:36:20;18.60;75.30
30379;DHT22;17168;49.164;9.060;2023-07-13T02:38:55;18.70;75.80
30379;DHT22;17168;49.164;9.060;2023-07-13T02:41:27;18.60;75.70
30379;DHT22;17168;49.164;9.060;2023-07-13T02:44:00;18.60;75.80
30379;DHT22;17168;49.164;9.060;2023-07-13T02:46:37;18.50;75.70
30379;DHT22;17168;49.164;9.060;2023-07-13T02:49:09;18.50;75.80
30379;DHT22;17168;49.164;9.060;2023-07-13T02:51:41;18.50;75.80
30379;DHT22;17168;49.164;9.060;2023-07-13T02:54:16;18.40;75.80
30379;DHT22;17168;49.164;9.060;2023-07-13T02:56:48;18.40;75.80
30379;DHT22;17168;49.164;9.060;2023-07-13T02:59:23;18.40;75.80
30379;DHT22;17168;49.164;9.060;2023-07-13T03:01:55;18.30;75.90
30379;DHT22;17168;49.164;9.060;2023-07-13T03:04:28;18.30;76.00
30379;DHT22;17168;49.164;9.060;2023-07-13T03:07:00;18.20;76.20
30379;DHT22;17168;49.164;9.060;2023-07-13T03:09:35;18.10;76.40
30379;DHT22;17168;49.164;9.060;2023-07-13T03:12:08;18.10;76.60
30379;DHT22;17168;49.164;9.060;2023-07-13T03:14:40;18.00;76.80
30379;DHT22;17168;49.164;9.060;2023-07-13T03:17:13;18.00;76.90
30379;DHT22;17168;49.164;9.060;2023-07-13T03:19:45;17.90;77.00
30379;DHT22;17168;49.164;9.060;2023-07-13T03:22:21;17.80;77.30
30379;DHT22;17168;49.164;9.060;2023-07-13T03:24:57;17.80;77.40
30379;DHT22;17168;49.164;9.060;2023-07-13T03:27:29;17.70;77.50
30379;DHT22;17168;49.164;9.060;2023-07-13T03:30:02;17.60;77.60
30379;DHT22;17168;49.164;9.060;2023-07-13T03:32:34;17.60;77.80
30379;DHT22;17168;49.164;9.060;2023-07-13T03:35:08;17.50;78.10
30379;DHT22;17168;49.164;9.060;2023-07-13T03:37:40;17.50;78.80
30379;DHT22;17168;49.164;9.060;2023-07-13T03:40:17;17.40;79.20
30379;DHT22;17168;49.164;9.060;2023-07-13T03:42:50;17.30;79.60
30379;DHT22;17168;49.164;9.060;2023-07-13T03:45:22;17.30;79.90
30379;DHT22;17168;49.164;9.060;2023-07-13T03:47:54;17.30;80.00
30379;DHT22;17168;49.164;9.060;2023-07-13T03:50:26;17.30;80.30
30379;DHT22;17168;49.164;9.060;2023-07-13T03:52:59;17.30;81.00
30379;DHT22;17168;49.164;9.060;2023-07-13T03:55:34;17.20;81.70
30379;DHT22;17168;49.164;9.060;2023-07-13T03:58:28;17.20;82.80
30379;DHT22;17168;49.164;9.060;2023-07-13T04:01:02;17.20;83.60
30379;DHT22;17168;49.164;9.060;2023-07-13T04:03:35;17.20;84.10
30379;DHT22;17168;49.164;9.060;2023-07-13T04:06:15;17.20;84.40
30379;DHT22;17168;49.164;9.060;2023-07-13T04:08:48;17.20;84.80
30379;DHT22;17168;49.164;9.060;2023-07-13T04:11:26;17.20;85.20
30379;DHT22;17168;49.164;9.060;2023-07-13T04:13:58;17.20;85.50
30379;DHT22;17168;49.164;9.060;2023-07-13T04:16:31;17.20;85.70
30379;DHT22;17168;49.164;9.060;2023-07-13T04:19:03;17.20;85.70
30379;DHT22;17168;49.164;9.060;2023-07-13T04:21:36;17.20;85.80
30379;DHT22;17168;49.164;9.060;2023-07-13T04:24:09;17.10;85.90
30379;DHT22;17168;49.164;9.060;2023-07-13T04:26:43;17.20;86.00
30379;DHT22;17168;49.164;9.060;2023-07-13T04:29:16;17.10;86.10
30379;DHT22;17168;49.164;9.060;2023-07-13T04:31:48;17.10;86.10
30379;DHT22;17168;49.164;9.060;2023-07-13T04:34:20;17.20;86.20
30379;DHT22;17168;49.164;9.060;2023-07-13T04:36:52;17.20;86.10
30379;DHT22;17168;49.164;9.060;2023-07-13T04:39:25;17.20;85.90
30379;DHT22;17168;49.164;9.060;2023-07-13T04:41:59;17.20;85.90
30379;DHT22;17168;49.164;9.060;2023-07-13T04:44:32;17.20;86.10
30379;DHT22;17168;49.164;9.060;2023-07-13T04:47:04;17.30;86.40
30379;DHT22;17168;49.164;9.060;2023-07-13T04:49:36;17.30;86.70
30379;DHT22;17168;49.164;9.060;2023-07-13T04:52:09;17.30;87.00
30379;DHT22;17168;49.164;9.060;2023-07-13T04:54:47;17.30;87.30
30379;DHT22;17168;49.164;9.060;2023-07-13T04:57:22;17.30;87.30
30379;DHT22;17168;49.164;9.060;2023-07-13T04:59:54;17.30;87.60
30379;DHT22;17168;49.164;9.060;2023-07-13T05:02:27;17.40;87.90
30379;DHT22;17168;49.164;9.060;2023-07-13T05:05:00;17.40;88.00
30379;DHT22;17168;49.164;9.060;2023-07-13T05:07:33;17.40;88.10
30379;DHT22;17168;49.164;9.060;2023-07-13T05:10:08;17.40;88.30
30379;DHT22;17168;49.164;9.060;2023-07-13T05:12:43;17.40;88.50
30379;DHT22;17168;49.164;9.060;2023-07-13T05:15:16;17.40;88.80
30379;DHT22;17168;49.164;9.060;2023-07-13T05:17:52;17.50;89.10
30379;DHT22;17168;49.164;9.060;2023-07-13T05:20:25;17.50;89.10
30379;DHT22;17168;49.164;9.060;2023-07-13T05:22:57;17.50;89.20
30379;DHT22;17168;49.164;9.060;2023-07-13T05:25:29;17.60;89.90
30379;DHT22;17168;49.164;9.060;2023-07-13T05:28:04;17.60;90.30
30379;DHT22;17168;49.164;9.060;2023-07-13T05:30:36;17.60;90.80
30379;DHT22;17168;49.164;9.060;2023-07-13T05:33:09;17.70;91.00
30379;DHT22;17168;49.164;9.060;2023-07-13T05:35:41;17.70;91.00
30379;DHT22;17168;49.164;9.060;2023-07-13T05:38:13;17.80;90.80
30379;DHT22;17168;49.164;9.060;2023-07-13T05:40:46;17.80;90.50
30379;DHT22;17168;49.164;9.060;2023-07-13T05:43:20;17.80;90.20
30379;DHT22;17168;49.164;9.060;2023-07-13T05:45:54;17.90;90.10
30379;DHT22;17168;49.164;9.060;2023-07-13T05:48:26;17.90;89.90
30379;DHT22;17168;49.164;9.060;2023-07-13T05:50:59;18.00;89.60
30379;DHT22;17168;49.164;9.060;2023-07-13T05:53:33;18.00;89.00
30379;DHT22;17168;49.164;9.060;2023-07-13T05:56:05;18.10;88.90
30379;DHT22;17168;49.164;9.060;2023-07-13T05:58:40;18.10;88.90
30379;DHT22;17168;49.164;9.060;2023-07-13T06:01:14;18.30;89.10
30379;DHT22;17168;49.164;9.060;2023-07-13T06:03:50;18.20;89.20
30379;DHT22;17168;49.164;9.060;2023-07-13T06:06:22;18.30;88.90
30379;DHT22;17168;49.164;9.060;2023-07-13T06:08:54;18.30;89.00
30379;DHT22;17168;49.164;9.060;2023-07-13T06:11:28;18.40;88.90
30379;DHT22;17168;49.164;9.060;2023-07-13T06:14:04;18.40;88.70
30379;DHT22;17168;49.164;9.060;2023-07-13T06:16:36;18.50;88.20
30379;DHT22;17168;49.164;9.060;2023-07-13T06:19:09;18.50;88.00
30379;DHT22;17168;49.164;9.060;2023-07-13T06:21:41;18.50;87.30
30379;DHT22;17168;49.164;9.060;2023-07-13T06:24:13;18.50;86.80
30379;DHT22;17168;49.164;9.060;2023-07-13T06:26:45;18.60;86.70
30379;DHT22;17168;49.164;9.060;2023-07-13T06:29:20;18.60;86.40
30379;DHT22;17168;49.164;9.060;2023-07-13T06:31:52;18.60;86.40
30379;DHT22;17168;49.164;9.060;2023-07-13T06:34:24;18.60;86.30
30379;DHT22;17168;49.164;9.060;2023-07-13T06:36:56;18.60;85.10
30379;DHT22;17168;49.164;9.060;2023-07-13T06:39:29;18.70;84.50
30379;DHT22;17168;49.164;9.060;2023-07-13T06:42:01;18.70;82.90
30379;DHT22;17168;49.164;9.060;2023-07-13T06:44:36;18.70;81.70
30379;DHT22;17168;49.164;9.060;2023-07-13T06:47:08;18.80;80.00
30379;DHT22;17168;49.164;9.060;2023-07-13T06:49:41;18.80;77.70
30379;DHT22;17168;49.164;9.060;2023-07-13T06:52:13;18.90;76.30
30379;DHT22;17168;49.164;9.060;2023-07-13T06:54:46;19.00;75.10
30379;DHT22;17168;49.164;9.060;2023-07-13T06:57:18;19.10;75.60
30379;DHT22;17168;49.164;9.060;2023-07-13T06:59:52;19.10;75.20
30379;DHT22;17168;49.164;9.060;2023-07-13T07:02:25;19.20;74.70
30379;DHT22;17168;49.164;9.060;2023-07-13T07:04:57;19.30;73.90
30379;DHT22;17168;49.164;9.060;2023-07-13T07:07:29;19.30;74.10
30379;DHT22;17168;49.164;9.060;2023-07-13T07:10:02;19.40;74.20
30379;DHT22;17168;49.164;9.060;2023-07-13T07:12:35;19.50;74.00
30379;DHT22;17168;49.164;9.060;2023-07-13T07:15:10;19.50;73.40
30379;DHT22;17168;49.164;9.060;2023-07-13T07:17:42;19.60;73.60
30379;DHT22;17168;49.164;9.060;2023-07-13T07:20:15;19.60;73.20
30379;DHT22;17168;49.164;9.060;2023-07-13T07:22:48;19.70;73.00
30379;DHT22;17168;49.164;9.060;2023-07-13T07:25:20;19.80;72.60
30379;DHT22;17168;49.164;9.060;2023-07-13T07:27:52;19.80;71.40
30379;DHT22;17168;49.164;9.060;2023-07-13T07:30:30;19.90;71.30
30379;DHT22;17168;49.164;9.060;2023-07-13T07:33:05;20.00;71.20
30379;DHT22;17168;49.164;9.060;2023-07-13T07:35:37;20.00;70.10
30379;DHT22;17168;49.164;9.060;2023-07-13T07:38:30;20.10;69.30
30379;DHT22;17168;49.164;9.060;2023-07-13T07:41:03;20.10;69.00
30379;DHT22;17168;49.164;9.060;2023-07-13T07:43:39;20.20;69.10
30379;DHT22;17168;49.164;9.060;2023-07-13T07:46:14;20.20;68.80
30379;DHT22;17168;49.164;9.060;2023-07-13T07:48:46;20.30;68.10
30379;DHT22;17168;49.164;9.060;2023-07-13T07:51:19;20.40;67.80
30379;DHT22;17168;49.164;9.060;2023-07-13T07:53:51;20.50;68.00
30379;DHT22;17168;49.164;9.060;2023-07-13T07:56:23;20.50;67.20
30379;DHT22;17168;49.164;9.060;2023-07-13T07:58:58;20.60;67.90
30379;DHT22;17168;49.164;9.060;2023-07-13T08:01:36;20.70;67.10
30379;DHT22;17168;49.164;9.060;2023-07-13T08:04:11;20.70;66.40
30379;DHT22;17168;49.164;9.060;2023-07-13T08:07:04;20.80;66.80
30379;DHT22;17168;49.164;9.060;2023-07-13T08:09:37;20.90;67.10
30379;DHT22;17168;49.164;9.060;2023-07-13T08:12:09;20.90;66.50
30379;DHT22;17168;49.164;9.060;2023-07-13T08:14:44;21.00;66.70
30379;DHT22;17168;49.164;9.060;2023-07-13T08:17:26;21.00;66.60
30379;DHT22;17168;49.164;9.060;2023-07-13T08:19:59;21.10;66.70
30379;DHT22;17168;49.164;9.060;2023-07-13T08:22:31;21.10;65.40
30379;DHT22;17168;49.164;9.060;2023-07-13T08:25:04;21.20;64.80
30379;DHT22;17168;49.164;9.060;2023-07-13T08:27:36;21.30;64.20
30379;DHT22;17168;49.164;9.060;2023-07-13T08:30:09;21.40;64.30
30379;DHT22;17168;49.164;9.060;2023-07-13T08:32:44;21.50;63.40
30379;DHT22;17168;49.164;9.060;2023-07-13T08:35:16;21.60;63.20
30379;DHT22;17168;49.164;9.060;2023-07-13T08:37:49;21.60;62.00
30379;DHT22;17168;49.164;9.060;2023-07-13T08:40:25;21.70;61.50
30379;DHT22;17168;49.164;9.060;2023-07-13T08:42:58;21.80;61.10
30379;DHT22;17168;49.164;9.060;2023-07-13T08:45:42;21.80;60.50
30379;DHT22;17168;49.164;9.060;2023-07-13T08:48:22;21.90;60.90
30379;DHT22;17168;49.164;9.060;2023-07-13T08:50:58;22.00;60.50
30379;DHT22;17168;49.164;9.060;2023-07-13T08:53:36;22.00;57.90
30379;DHT22;17168;49.164;9.060;2023-07-13T08:56:19;22.10;57.80
30379;DHT22;17168;49.164;9.060;2023-07-13T08:58:56;22.20;58.10
30379;DHT22;17168;49.164;9.060;2023-07-13T09:01:34;22.30;57.80
30379;DHT22;17168;49.164;9.060;2023-07-13T09:04:18;22.30;57.80
30379;DHT22;17168;49.164;9.060;2023-07-13T09:06:59;22.40;57.20
30379;DHT22;17168;49.164;9.060;2023-07-13T09:09:40;22.50;57.40
30379;DHT22;17168;49.164;9.060;2023-07-13T09:12:19;22.60;56.30
30379;DHT22;17168;49.164;9.060;2023-07-13T09:14:56;22.60;56.30
30379;DHT22;17168;49.164;9.060;2023-07-13T09:17:33;22.70;57.00
30379;DHT22;17168;49.164;9.060;2023-07-13T09:20:19;22.70;57.00
30379;DHT22;17168;49.164;9.060;2023-07-13T09:22:54;22.80;56.90
30379;DHT22;17168;49.164;9.060;2023-07-13T09:25:29;22.80;56.30
30379;DHT22;17168;49.164;9.060;2023-07-13T09:28:10;22.90;56.40
30379;DHT22;17168;49.164;9.060;2023-07-13T09:30:48;23.00;55.80
30379;DHT22;17168;49.164;9.060;2023-07-13T09:33:23;23.00;55.10
30379;DHT22;17168;49.164;9.060;2023-07-13T09:35:58;23.00;54.90
30379;DHT22;17168;49.164;9.060;2023-07-13T09:38:32;23.10;55.10
30379;DHT22;17168;49.164;9.060;2023-07-13T09:41:15;23.20;55.10
30379;DHT22;17168;49.164;9.060;2023-07-13T09:44:18;23.20;53.80
30379;DHT22;17168;49.164;9.060;2023-07-13T09:46:59;23.30;54.10
30379;DHT22;17168;49.164;9.060;2023-07-13T09:49:34;23.30;54.00
30379;DHT22;17168;49.164;9.060;2023-07-13T09:52:12;23.40;54.20
30379;DHT22;17168;49.164;9.060;2023-07-13T09:54:51;23.50;54.10
30379;DHT22;17168;49.164;9.060;2023-07-13T09:57:24;23.50;53.70
30379;DHT22;17168;49.164;9.060;2023-07-13T10:00:21;23.60;53.40
30379;DHT22;17168;49.164;9.060;2023-07-13T10:03:02;23.70;53.20
30379;DHT22;17168;49.164;9.060;2023-07-13T10:05:40;23.70;53.70
30379;DHT22;17168;49.164;9.060;2023-07-13T10:08:20;23.70;53.30
30379;DHT22;17168;49.164;9.060;2023-07-13T10:10:54;23.90;52.70
30379;DHT22;17168;49.164;9.060;2023-07-13T10:13:32;23.90;51.90
30379;DHT22;17168;49.164;9.060;2023-07-13T10:16:07;23.90;51.80
30379;DHT22;17168;49.164;9.060;2023-07-13T10:18:43;23.90;51.30
30379;DHT22;17168;49.164;9.060;2023-07-13T10:21:17;24.00;50.80
30379;DHT22;17168;49.164;9.060;2023-07-13T10:23:57;24.00;50.50
30379;DHT22;17168;49.164;9.060;2023-07-13T10:26:33;24.10;50.30
30379;DHT22;17168;49.164;9.060;2023-07-13T10:29:12;24.10;50.10
30379;DHT22;17168;49.164;9.060;2023-07-13T10:31:46;24.10;50.30
30379;DHT22;17168;49.164;9.060;2023-07-13T10:34:18;24.20;50.80
30379;DHT22;17168;49.164;9.060;2023-07-13T10:36:52;24.30;51.20
30379;DHT22;17168;49.164;9.060;2023-07-13T10:39:28;24.40;51.10
30379;DHT22;17168;49.164;9.060;2023-07-13T10:42:04;24.50;50.40
30379;DHT22;17168;49.164;9.060;2023-07-13T10:44:38;24.50;50.40
30379;DHT22;17168;49.164;9.060;2023-07-13T10:47:15;24.60;50.10
30379;DHT22;17168;49.164;9.060;2023-07-13T10:49:52;24.60;50.50
30379;DHT22;17168;49.164;9.060;2023-07-13T10:52:42;24.70;49.40
30379;DHT22;17168;49.164;9.060;2023-07-13T10:55:34;24.70;48.00
30379;DHT22;17168;49.164;9.060;2023-07-13T10:58:12;24.70;48.50
30379;DHT22;17168;49.164;9.060;2023-07-13T11:00:50;24.70;48.70
30379;DHT22;17168;49.164;9.060;2023-07-13T11:03:27;24.70;49.10
30379;DHT22;17168;49.164;9.060;2023-07-13T11:06:11;24.60;48.90
30379;DHT22;17168;49.164;9.060;2023-07-13T11:08:55;24.60;48.50
30379;DHT22;17168;49.164;9.060;2023-07-13T11:11:39;24.60;48.50
30379;DHT22;17168;49.164;9.060;2023-07-13T11:14:28;24.60;48.70
30379;DHT22;17168;49.164;9.060;2023-07-13T11:17:24;24.60;48.50
30379;DHT22;17168;49.164;9.060;2023-07-13T11:20:10;24.70;48.30
30379;DHT22;17168;49.164;9.060;2023-07-13T11:22:53;24.70;48.10
30379;DHT22;17168;49.164;9.060;2023-07-13T11:25:38;24.80;49.50
30379;DHT22;17168;49.164;9.060;2023-07-13T11:28:32;24.90;48.60
30379;DHT22;17168;49.164;9.060;2023-07-13T11:31:16;25.00;48.30
30379;DHT22;17168;49.164;9.060;2023-07-13T11:33:55;25.10;47.60
30379;DHT22;17168;49.164;9.060;2023-07-13T11:36:32;25.10;47.60
30379;DHT22;17168;49.164;9.060;2023-07-13T11:39:16;25.20;47.70
30379;DHT22;17168;49.164;9.060;2023-07-13T11:41:51;25.30;48.00
30379;DHT22;17168;49.164;9.060;2023-07-13T11:44:29;25.50;47.10
30379;DHT22;17168;49.164;9.060;2023-07-13T11:47:09;25.50;45.50
30379;DHT22;17168;49.164;9.060;2023-07-13T11:49:43;25.50;46.20
30379;DHT22;17168;49.164;9.060;2023-07-13T11:52:18;25.60;46.40
30379;DHT22;17168;49.164;9.060;2023-07-13T11:54:55;25.60;46.10
30379;DHT22;17168;49.164;9.060;2023-07-13T11:57:29;25.60;46.40
30379;DHT22;17168;49.164;9.060;2023-07-13T12:00:14;25.60;46.60
30379;DHT22;17168;49.164;9.060;2023-07-13T12:02:50;25.60;46.80
30379;DHT22;17168;49.164;9.060;2023-07-13T12:05:23;25.70;46.70
30379;DHT22;17168;49.164;9.060;2023-07-13T12:07:55;25.70;46.70
30379;DHT22;17168;49.164;9.060;2023-07-13T12:10:29;25.90;46.00
30379;DHT22;17168;49.164;9.060;2023-07-13T12:13:04;25.90;46.00
30379;DHT22;17168;49.164;9.060;2023-07-13T12:15:41;25.80;45.90
30379;DHT22;17168;49.164;9.060;2023-07-13T12:18:15;25.80;47.10
30379;DHT22;17168;49.164;9.060;2023-07-13T12:20:50;26.10;47.60
30379;DHT22;17168;49.164;9.060;2023-07-13T12:23:24;26.50;46.90
30379;DHT22;17168;49.164;9.060;2023-07-13T12:25:59;26.70;45.80
30379;DHT22;17168;49.164;9.060;2023-07-13T12:28:34;26.70;45.20
30379;DHT22;17168;49.164;9.060;2023-07-13T12:31:24;26.80;46.00
30379;DHT22;17168;49.164;9.060;2023-07-13T12:33:59;27.10;45.40
30379;DHT22;17168;49.164;9.060;2023-07-13T12:36:34;27.40;45.90
30379;DHT22;17168;49.164;9.060;2023-07-13T12:39:15;27.60;45.20
30379;DHT22;17168;49.164;9.060;2023-07-13T12:41:49;27.80;44.80
30379;DHT22;17168;49.164;9.060;2023-07-13T12:44:26;27.90;44.50
30379;DHT22;17168;49.164;9.060;2023-07-13T12:47:05;27.90;44.20
30379;DHT22;17168;49.164;9.060;2023-07-13T12:49:42;28.10;44.30
30379;DHT22;17168;49.164;9.060;2023-07-13T12:52:17;27.90;44.00
30379;DHT22;17168;49.164;9.060;2023-07-13T12:54:54;27.70;44.30
30379;DHT22;17168;49.164;9.060;2023-07-13T12:57:41;27.60;44.90
30379;DHT22;17168;49.164;9.060;2023-07-13T13:00:22;27.70;44.90
30379;DHT22;17168;49.164;9.060;2023-07-13T13:03:06;27.90;45.30
30379;DHT22;17168;49.164;9.060;2023-07-13T13:05:59;28.30;45.30
30379;DHT22;17168;49.164;9.060;2023-07-13T13:08:33;28.60;43.60
30379;DHT22;17168;49.164;9.060;2023-07-13T13:11:06;28.80;43.90
30379;DHT22;17168;49.164;9.060;2023-07-13T13:13:38;29.00;43.40
30379;DHT22;17168;49.164;9.060;2023-07-13T13:16:12;29.10;43.70
30379;DHT22;17168;49.164;9.060;2023-07-13T13:18:48;29.30;43.10
30379;DHT22;17168;49.164;9.060;2023-07-13T13:21:20;29.50;42.90
30379;DHT22;17168;49.164;9.060;2023-07-13T13:23:52;29.70;42.20
30379;DHT22;17168;49.164;9.060;2023-07-13T13:26:25;29.90;41.10
30379;DHT22;17168;49.164;9.060;2023-07-13T13:28:57;30.10;42.00
30379;DHT22;17168;49.164;9.060;2023-07-13T13:31:30;30.30;41.00
30379;DHT22;17168;49.164;9.060;2023-07-13T13:34:08;30.40;41.50
30379;DHT22;17168;49.164;9.060;2023-07-13T13:36:41;30.30;41.10
30379;DHT22;17168;49.164;9.060;2023-07-13T13:39:22;30.00;40.80
30379;DHT22;17168;49.164;9.060;2023-07-13T13:41:54;30.00;41.10
30379;DHT22;17168;49.164;9.060;2023-07-13T13:44:27;29.70;41.50
30379;DHT22;17168;49.164;9.060;2023-07-13T13:46:59;29.50;40.60
30379;DHT22;17168;49.164;9.060;2023-07-13T13:49:34;29.20;40.10
30379;DHT22;17168;49.164;9.060;2023-07-13T13:52:09;28.90;40.50
30379;DHT22;17168;49.164;9.060;2023-07-13T13:54:42;28.60;41.00
30379;DHT22;17168;49.164;9.060;2023-07-13T13:57:14;28.40;41.70
30379;DHT22;17168;49.164;9.060;2023-07-13T13:59:46;28.30;42.10
30379;DHT22;17168;49.164;9.060;2023-07-13T14:02:27;28.40;42.30
30379;DHT22;17168;49.164;9.060;2023-07-13T14:05:03;28.60;42.00
30379;DHT22;17168;49.164;9.060;2023-07-13T14:07:37;28.90;42.70
30379;DHT22;17168;49.164;9.060;2023-07-13T14:10:12;29.20;42.30
30379;DHT22;17168;49.164;9.060;2023-07-13T14:12:47;29.50;41.80
30379;DHT22;17168;49.164;9.060;2023-07-13T14:15:22;29.70;40.80
30379;DHT22;17168;49.164;9.060;2023-07-13T14:17:55;29.70;40.80
30379;DHT22;17168;49.164;9.060;2023-07-13T14:20:30;29.60;40.70
30379;DHT22;17168;49.164;9.060;2023-07-13T14:23:02;29.40;40.80
30379;DHT22;17168;49.164;9.060;2023-07-13T14:25:35;29.30;41.00
30379;DHT22;17168;49.164;9.060;2023-07-13T14:28:17;29.20;41.30
30379;DHT22;17168;49.164;9.060;2023-07-13T14:30:50;29.20;41.20
30379;DHT22;17168;49.164;9.060;2023-07-13T14:33:23;29.30;40.80
30379;DHT22;17168;49.164;9.060;2023-07-13T14:35:58;29.50;41.10
30379;DHT22;17168;49.164;9.060;2023-07-13T14:38:30;29.70;40.80
30379;DHT22;17168;49.164;9.060;2023-07-13T14:41:02;30.00;40.50
30379;DHT22;17168;49.164;9.060;2023-07-13T14:43:36;30.20;39.30
30379;DHT22;17168;49.164;9.060;2023-07-13T14:46:21;30.30;39.30
30379;DHT22;17168;49.164;9.060;2023-07-13T14:49:00;30.50;39.00
30379;DHT22;17168;49.164;9.060;2023-07-13T14:51:36;30.60;37.60
30379;DHT22;17168;49.164;9.060;2023-07-13T14:54:10;30.60;36.80
30379;DHT22;17168;49.164;9.060;2023-07-13T14:56:42;30.70;37.60
30379;DHT22;17168;49.164;9.060;2023-07-13T14:59:14;30.70;37.20
30379;DHT22;17168;49.164;9.060;2023-07-13T15:01:47;30.70;37.40
30379;DHT22;17168;49.164;9.060;2023-07-13T15:04:20;30.70;37.60
30379;DHT22;17168;49.164;9.060;2023-07-13T15:06:58;30.60;37.30
30379;DHT22;17168;49.164;9.060;2023-07-13T15:09:31;30.60;37.60
30379;DHT22;17168;49.164;9.060;2023-07-13T15:12:04;30.60;38.30
30379;DHT22;17168;49.164;9.060;2023-07-13T15:14:37;30.60;38.40
30379;DHT22;17168;49.164;9.060;2023-07-13T15:17:26;30.70;37.60
30379;DHT22;17168;49.164;9.060;2023-07-13T15:19:59;30.80;37.90
30379;DHT22;17168;49.164;9.060;2023-07-13T15:22:34;30.90;38.00
30379;DHT22;17168;49.164;9.060;2023-07-13T15:25:14;31.00;38.30
30379;DHT22;17168;49.164;9.060;2023-07-13T15:27:47;31.10;38.50
30379;DHT22;17168;49.164;9.060;2023-07-13T15:30:20;31.20;38.40
30379;DHT22;17168;49.164;9.060;2023-07-13T15:32:53;31.20;37.80
30379;DHT22;17168;49.164;9.060;2023-07-13T15:35:26;31.20;37.90
30379;DHT22;17168;49.164;9.060;2023-07-13T15:38:13;31.20;38.20
30379;DHT22;17168;49.164;9.060;2023-07-13T15:40:46;31.20;38.60
30379;DHT22;17168;49.164;9.060;2023-07-13T15:43:19;31.10;38.50
30379;DHT22;17168;49.164;9.060;2023-07-13T15:45:51;31.00;38.40
30379;DHT22;17168;49.164;9.060;2023-07-13T15:48:25;31.00;38.20
30379;DHT22;17168;49.164;9.060;2023-07-13T15:51:01;30.90;38.10
30379;DHT22;17168;49.164;9.060;2023-07-13T15:53:38;31.00;38.50
30379;DHT22;17168;49.164;9.060;2023-07-13T15:56:17;30.90;38.10
30379;DHT22;17168;49.164;9.060;2023-07-13T15:58:51;30.90;38.10
30379;DHT22;17168;49.164;9.060;2023-07-13T16:01:24;30.70;37.80
30379;DHT22;17168;49.164;9.060;2023-07-13T16:03:56;30.60;38.00
30379;DHT22;17168;49.164;9.060;2023-07-13T16:06:32;30.60;38.00
30379;DHT22;17168;49.164;9.060;2023-07-13T16:09:09;30.60;37.80
30379;DHT22;17168;49.164;9.060;2023-07-13T16:11:44;30.60;37.20
30379;DHT22;17168;49.164;9.060;2023-07-13T16:14:16;30.40;37.20
30379;DHT22;17168;49.164;9.060;2023-07-13T16:16:50;30.30;37.00
30379;DHT22;17168;49.164;9.060;2023-07-13T16:19:22;30.10;37.80
30379;DHT22;17168;49.164;9.060;2023-07-13T16:22:01;30.00;38.60